createdAt,value
2018-03-28T00:00:28.433Z,0
2018-03-28T00:01:29.817Z,0
2018-03-28T00:02:31.208Z,0
2018-03-28T00:03:32.592Z,0
2018-03-28T00:04:33.985Z,0
2018-03-28T00:05:35.372Z,0
2018-03-28T00:06:36.755Z,0
2018-03-28T00:07:38.150Z,0
2018-03-28T00:08:39.549Z,0
2018-03-28T00:09:40.940Z,0
2018-03-28T00:10:42.328Z,0
2018-03-28T00:11:43.709Z,0
2018-03-28T00:12:45.099Z,0
2018-03-28T00:13:46.495Z,0
2018-03-28T00:14:47.888Z,0
2018-03-28T00:15:49.272Z,0
2018-03-28T00:16:50.660Z,0
2018-03-28T00:17:52.047Z,0
2018-03-28T00:18:53.434Z,0
2018-03-28T00:19:54.822Z,0
2018-03-28T00:20:56.209Z,0
2018-03-28T00:21:57.602Z,0
2018-03-28T00:22:58.984Z,0
2018-03-28T00:24:00.374Z,0
2018-03-28T00:25:01.763Z,0
2018-03-28T00:26:03.150Z,0
2018-03-28T00:27:04.535Z,0
2018-03-28T00:28:05.921Z,0
2018-03-28T00:29:07.307Z,0
2018-03-28T00:30:08.694Z,0
2018-03-28T00:31:10.086Z,0
2018-03-28T00:32:11.475Z,0
2018-03-28T00:33:12.860Z,0
2018-03-28T00:34:14.248Z,0
2018-03-28T00:35:15.638Z,0
2018-03-28T00:36:17.032Z,0
2018-03-28T00:37:18.415Z,0
2018-03-28T00:38:19.807Z,0
2018-03-28T00:39:21.191Z,0
2018-03-28T00:40:22.680Z,0
2018-03-28T00:41:24.096Z,0
2018-03-28T00:42:25.508Z,0
2018-03-28T00:43:26.864Z,0
2018-03-28T00:44:28.251Z,0
2018-03-28T00:45:29.640Z,0
2018-03-28T00:46:31.032Z,0
2018-03-28T00:47:32.416Z,0
2018-03-28T00:48:33.806Z,0
2018-03-28T00:49:35.195Z,0
2018-03-28T00:50:36.585Z,0
2018-03-28T00:51:37.978Z,0
2018-03-28T00:52:39.382Z,0
2018-03-28T00:53:40.767Z,0
2018-03-28T00:54:42.155Z,0
2018-03-28T00:55:43.543Z,0
2018-03-28T00:56:44.940Z,0
2018-03-28T00:57:46.330Z,0
2018-03-28T00:58:47.722Z,0
2018-03-28T00:59:49.118Z,0
2018-03-28T01:00:50.508Z,0
2018-03-28T01:01:51.890Z,0
2018-03-28T01:02:53.280Z,0
2018-03-28T01:03:54.669Z,0
2018-03-28T01:04:56.059Z,0
2018-03-28T01:05:57.447Z,0
2018-03-28T01:06:58.837Z,0
2018-03-28T01:08:00.230Z,0
2018-03-28T01:09:01.616Z,0
2018-03-28T01:10:02.999Z,0
2018-03-28T01:11:04.397Z,0
2018-03-28T01:12:05.778Z,0
2018-03-28T01:13:07.170Z,0
2018-03-28T01:14:08.556Z,0
2018-03-28T01:15:09.942Z,0
2018-03-28T01:16:11.328Z,0
2018-03-28T01:17:12.718Z,0
2018-03-28T01:18:14.109Z,0
2018-03-28T01:19:15.494Z,0
2018-03-28T01:20:16.883Z,0
2018-03-28T01:21:18.273Z,0
2018-03-28T01:22:19.666Z,0
2018-03-28T01:23:21.052Z,0
2018-03-28T01:24:22.438Z,0
2018-03-28T01:25:23.827Z,0
2018-03-28T01:26:25.213Z,0
2018-03-28T01:27:26.605Z,0
2018-03-28T01:28:27.995Z,0
2018-03-28T01:29:29.421Z,0
2018-03-28T01:30:30.828Z,0
2018-03-28T01:31:32.245Z,0
2018-03-28T01:32:33.631Z,0
2018-03-28T01:33:35.035Z,0
2018-03-28T01:34:36.425Z,0
2018-03-28T01:35:37.814Z,0
2018-03-28T01:36:39.235Z,0
2018-03-28T01:37:40.617Z,0
2018-03-28T01:38:42.004Z,0
2018-03-28T01:39:43.392Z,0
2018-03-28T01:40:44.783Z,0
2018-03-28T01:41:46.169Z,0
2018-03-28T01:42:47.559Z,0
2018-03-28T01:43:48.951Z,0
2018-03-28T01:44:50.334Z,0
2018-03-28T01:45:51.723Z,0
2018-03-28T01:46:53.116Z,0
2018-03-28T01:47:54.507Z,0
2018-03-28T01:48:55.897Z,0
2018-03-28T01:49:57.289Z,0
2018-03-28T01:50:58.676Z,0
2018-03-28T01:52:00.062Z,0
2018-03-28T01:53:01.449Z,0
2018-03-28T01:54:02.840Z,0
2018-03-28T01:55:04.226Z,0
2018-03-28T01:56:05.618Z,0
2018-03-28T01:57:07.006Z,0
2018-03-28T01:58:08.391Z,0
2018-03-28T01:59:09.786Z,0
2018-03-28T02:00:11.173Z,0
2018-03-28T02:01:12.559Z,0
2018-03-28T02:02:13.950Z,0
2018-03-28T02:03:15.339Z,0
2018-03-28T02:04:16.730Z,0
2018-03-28T02:05:18.114Z,0
2018-03-28T02:06:19.502Z,0
2018-03-28T02:07:20.890Z,0
2018-03-28T02:08:22.278Z,0
2018-03-28T02:09:23.668Z,0
2018-03-28T02:10:25.084Z,0
2018-03-28T02:11:26.473Z,0
2018-03-28T02:12:27.861Z,0
2018-03-28T02:13:29.249Z,0
2018-03-28T02:14:30.638Z,0
2018-03-28T02:15:32.025Z,0
2018-03-28T02:16:33.418Z,0
2018-03-28T02:17:34.861Z,0
2018-03-28T02:18:36.201Z,0
2018-03-28T02:19:37.689Z,0
2018-03-28T02:20:39.088Z,0
2018-03-28T02:21:40.481Z,0
2018-03-28T02:22:41.874Z,0
2018-03-28T02:23:43.261Z,0
2018-03-28T02:24:44.672Z,0
2018-03-28T02:25:46.046Z,0
2018-03-28T02:26:47.431Z,0
2018-03-28T02:27:48.814Z,0
2018-03-28T02:28:50.204Z,0
2018-03-28T02:29:51.591Z,0
2018-03-28T02:30:52.989Z,0
2018-03-28T02:31:54.391Z,0
2018-03-28T02:32:55.781Z,0
2018-03-28T02:33:57.167Z,0
2018-03-28T02:34:58.555Z,0
2018-03-28T02:35:59.947Z,0
2018-03-28T02:37:01.336Z,0
2018-03-28T02:38:02.725Z,0
2018-03-28T02:39:04.125Z,0
2018-03-28T02:40:05.505Z,0
2018-03-28T02:41:06.899Z,0
2018-03-28T02:42:08.272Z,0
2018-03-28T02:43:09.678Z,0
2018-03-28T02:44:11.067Z,0
2018-03-28T02:45:12.467Z,0
2018-03-28T02:46:13.846Z,0
2018-03-28T02:47:15.242Z,0
2018-03-28T02:48:16.626Z,0
2018-03-28T02:49:18.017Z,0
2018-03-28T02:50:19.401Z,0
2018-03-28T02:51:20.796Z,0
2018-03-28T02:52:22.185Z,0
2018-03-28T02:53:23.575Z,0
2018-03-28T02:54:24.976Z,0
2018-03-28T02:55:26.366Z,0
2018-03-28T02:56:27.750Z,0
2018-03-28T02:57:29.133Z,0
2018-03-28T02:58:30.517Z,0
2018-03-28T02:59:31.910Z,0
2018-03-28T03:00:33.312Z,0
2018-03-28T03:01:34.689Z,0
2018-03-28T03:02:36.075Z,0
2018-03-28T03:03:37.739Z,0
2018-03-28T03:04:39.075Z,0
2018-03-28T03:05:40.462Z,0
2018-03-28T03:06:41.851Z,0
2018-03-28T03:07:43.236Z,0
2018-03-28T03:08:44.625Z,0
2018-03-28T03:09:46.048Z,0
2018-03-28T03:10:47.557Z,0
2018-03-28T03:11:48.943Z,0
2018-03-28T03:12:50.329Z,0
2018-03-28T03:13:51.720Z,0
2018-03-28T03:14:53.107Z,0
2018-03-28T03:15:54.499Z,0
2018-03-28T03:16:55.884Z,0
2018-03-28T03:17:57.271Z,0
2018-03-28T03:18:58.658Z,0
2018-03-28T03:20:00.051Z,0
2018-03-28T03:21:01.440Z,0
2018-03-28T03:22:02.829Z,0
2018-03-28T03:23:04.218Z,0
2018-03-28T03:24:05.622Z,0
2018-03-28T03:25:07.008Z,0
2018-03-28T03:26:08.393Z,0
2018-03-28T03:27:09.787Z,0
2018-03-28T03:28:11.171Z,0
2018-03-28T03:29:12.563Z,0
2018-03-28T03:30:13.949Z,0
2018-03-28T03:31:15.345Z,0
2018-03-28T03:32:16.780Z,0
2018-03-28T03:33:18.109Z,0
2018-03-28T03:34:19.495Z,0
2018-03-28T03:35:20.881Z,0
2018-03-28T03:36:22.269Z,0
2018-03-28T03:37:23.660Z,0
2018-03-28T03:38:25.060Z,0
2018-03-28T03:39:26.450Z,0
2018-03-28T03:40:27.833Z,0
2018-03-28T03:41:29.224Z,0
2018-03-28T03:42:30.610Z,0
2018-03-28T03:43:31.998Z,0
2018-03-28T03:44:33.389Z,0
2018-03-28T03:45:34.773Z,0
2018-03-28T03:46:36.203Z,0
2018-03-28T03:47:37.582Z,0
2018-03-28T03:48:38.973Z,0
2018-03-28T03:49:40.358Z,0
2018-03-28T03:50:41.746Z,0
2018-03-28T03:51:43.133Z,0
2018-03-28T03:52:44.524Z,0
2018-03-28T03:53:45.908Z,0
2018-03-28T03:54:47.295Z,0
2018-03-28T03:55:48.681Z,0
2018-03-28T03:56:50.067Z,0
2018-03-28T03:57:51.455Z,0
2018-03-28T03:58:52.847Z,0
2018-03-28T03:59:54.247Z,0
2018-03-28T04:00:55.756Z,0
2018-03-28T04:01:57.140Z,0
2018-03-28T04:02:58.530Z,0
2018-03-28T04:03:59.920Z,0
2018-03-28T04:05:01.310Z,0
2018-03-28T04:06:02.697Z,0
2018-03-28T04:07:04.082Z,0
2018-03-28T04:08:05.468Z,0
2018-03-28T04:09:06.860Z,0
2018-03-28T04:10:08.241Z,0
2018-03-28T04:11:09.631Z,0
2018-03-28T04:12:11.021Z,0
2018-03-28T04:13:12.405Z,0
2018-03-28T04:14:13.793Z,0
2018-03-28T04:15:15.183Z,0
2018-03-28T04:16:16.567Z,0
2018-03-28T04:17:17.954Z,0
2018-03-28T04:18:19.339Z,0
2018-03-28T04:19:20.730Z,0
2018-03-28T04:20:22.116Z,0
2018-03-28T04:21:23.502Z,0
2018-03-28T04:22:24.893Z,0
2018-03-28T04:23:26.279Z,0
2018-03-28T04:24:27.666Z,0
2018-03-28T04:25:29.056Z,0
2018-03-28T04:26:30.445Z,0
2018-03-28T04:27:31.834Z,0
2018-03-28T04:28:33.220Z,0
2018-03-28T04:29:34.607Z,0
2018-03-28T04:30:35.993Z,0
2018-03-28T04:31:37.376Z,0
2018-03-28T04:32:38.768Z,0
2018-03-28T04:33:40.153Z,0
2018-03-28T04:34:41.560Z,0
2018-03-28T04:35:42.951Z,0
2018-03-28T04:36:44.333Z,0
2018-03-28T04:37:45.759Z,0
2018-03-28T04:38:47.113Z,0
2018-03-28T04:39:48.513Z,0
2018-03-28T04:40:49.891Z,0
2018-03-28T04:41:51.280Z,0
2018-03-28T04:42:52.664Z,0
2018-03-28T04:43:54.051Z,0
2018-03-28T04:44:55.444Z,0
2018-03-28T04:45:56.834Z,0
2018-03-28T04:46:58.218Z,0
2018-03-28T04:47:59.605Z,0
2018-03-28T04:49:01.046Z,0
2018-03-28T04:50:02.380Z,0
2018-03-28T04:51:03.867Z,0
2018-03-28T04:52:05.275Z,0
2018-03-28T04:53:06.663Z,0
2018-03-28T04:54:08.048Z,4
2018-03-28T04:55:09.436Z,4
2018-03-28T04:56:10.824Z,4
2018-03-28T04:57:12.210Z,4
2018-03-28T04:58:13.596Z,4
2018-03-28T04:59:14.996Z,4
2018-03-28T05:00:16.404Z,4
2018-03-28T05:01:17.788Z,4
2018-03-28T05:02:19.187Z,4
2018-03-28T05:03:20.568Z,4
2018-03-28T05:04:21.962Z,0
2018-03-28T05:05:23.350Z,0
2018-03-28T05:06:24.739Z,4
2018-03-28T05:07:26.132Z,4
2018-03-28T05:08:27.517Z,4
2018-03-28T05:09:28.900Z,4
2018-03-28T05:10:30.293Z,4
2018-03-28T05:11:31.680Z,4
2018-03-28T05:12:33.063Z,4
2018-03-28T05:13:34.450Z,8
2018-03-28T05:14:35.863Z,4
2018-03-28T05:15:37.255Z,8
2018-03-28T05:16:38.638Z,4
2018-03-28T05:17:40.026Z,8
2018-03-28T05:18:41.414Z,8
2018-03-28T05:19:42.793Z,8
2018-03-28T05:20:44.180Z,8
2018-03-28T05:21:45.568Z,8
2018-03-28T05:22:46.958Z,16
2018-03-28T05:23:48.346Z,20
2018-03-28T05:24:49.734Z,20
2018-03-28T05:25:51.121Z,16
2018-03-28T05:26:52.513Z,16
2018-03-28T05:27:53.903Z,16
2018-03-28T05:28:55.323Z,12
2018-03-28T05:29:56.711Z,12
2018-03-28T05:30:58.099Z,16
2018-03-28T05:31:59.489Z,24
2018-03-28T05:33:00.886Z,20
2018-03-28T05:34:02.262Z,28
2018-03-28T05:35:03.650Z,52
2018-03-28T05:36:05.049Z,64
2018-03-28T05:37:06.434Z,60
2018-03-28T05:38:07.827Z,64
2018-03-28T05:39:09.217Z,72
2018-03-28T05:40:10.606Z,76
2018-03-28T05:41:11.993Z,84
2018-03-28T05:42:13.380Z,84
2018-03-28T05:43:14.856Z,84
2018-03-28T05:44:16.293Z,84
2018-03-28T05:45:17.686Z,100
2018-03-28T05:46:19.075Z,128
2018-03-28T05:47:20.469Z,148
2018-03-28T05:48:21.854Z,164
2018-03-28T05:49:23.242Z,172
2018-03-28T05:50:24.662Z,156
2018-03-28T05:51:26.022Z,152
2018-03-28T05:52:27.410Z,160
2018-03-28T05:53:28.802Z,156
2018-03-28T05:54:30.237Z,168
2018-03-28T05:55:31.574Z,192
2018-03-28T05:56:32.965Z,224
2018-03-28T05:57:34.358Z,288
2018-03-28T05:58:35.748Z,332
2018-03-28T05:59:37.140Z,316
2018-03-28T06:00:38.530Z,324
2018-03-28T06:01:39.946Z,316
2018-03-28T06:02:41.308Z,264
2018-03-28T06:03:42.699Z,232
2018-03-28T06:04:44.086Z,204
2018-03-28T06:05:45.480Z,208
2018-03-28T06:06:46.868Z,196
2018-03-28T06:07:48.261Z,188
2018-03-28T06:08:49.649Z,196
2018-03-28T06:09:51.033Z,192
2018-03-28T06:10:52.422Z,188
2018-03-28T06:11:53.816Z,140
2018-03-28T06:12:55.214Z,92
2018-03-28T06:13:56.599Z,80
2018-03-28T06:14:57.996Z,72
2018-03-28T06:15:59.385Z,80
2018-03-28T06:17:00.767Z,72
2018-03-28T06:18:02.154Z,72
2018-03-28T06:19:03.544Z,76
2018-03-28T06:20:04.931Z,84
2018-03-28T06:21:06.320Z,104
2018-03-28T06:22:07.710Z,108
2018-03-28T06:23:09.096Z,160
2018-03-28T06:24:10.506Z,168
2018-03-28T06:25:11.882Z,184
2018-03-28T06:26:13.279Z,168
2018-03-28T06:27:14.794Z,200
2018-03-28T06:28:16.186Z,240
2018-03-28T06:29:17.580Z,240
2018-03-28T06:30:18.965Z,232
2018-03-28T06:31:20.363Z,188
2018-03-28T06:32:21.748Z,220
2018-03-28T06:33:23.140Z,252
2018-03-28T06:34:24.553Z,328
2018-03-28T06:35:25.998Z,288
2018-03-28T06:36:27.391Z,292
2018-03-28T06:37:28.780Z,268
2018-03-28T06:38:30.181Z,396
2018-03-28T06:39:31.570Z,584
2018-03-28T06:40:32.958Z,556
2018-03-28T06:41:34.390Z,512
2018-03-28T06:42:35.740Z,544
2018-03-28T06:43:37.131Z,516
2018-03-28T06:44:38.519Z,520
2018-03-28T06:45:39.910Z,432
2018-03-28T06:46:41.300Z,348
2018-03-28T06:47:42.694Z,332
2018-03-28T06:48:44.085Z,308
2018-03-28T06:49:45.481Z,348
2018-03-28T06:50:46.871Z,540
2018-03-28T06:51:48.259Z,556
2018-03-28T06:52:49.651Z,572
2018-03-28T06:53:51.040Z,672
2018-03-28T06:54:52.431Z,680
2018-03-28T06:55:53.822Z,672
2018-03-28T06:56:55.221Z,572
2018-03-28T06:57:56.614Z,524
2018-03-28T06:58:58.004Z,616
2018-03-28T06:59:59.392Z,580
2018-03-28T07:01:00.779Z,652
2018-03-28T07:02:02.174Z,640
2018-03-28T07:03:03.561Z,580
2018-03-28T07:04:04.953Z,568
2018-03-28T07:05:06.346Z,632
2018-03-28T07:06:07.736Z,612
2018-03-28T07:07:09.125Z,636
2018-03-28T07:08:10.514Z,736
2018-03-28T07:09:11.904Z,624
2018-03-28T07:10:13.299Z,516
2018-03-28T07:11:14.690Z,360
2018-03-28T07:12:16.081Z,288
2018-03-28T07:13:17.470Z,264
2018-03-28T07:14:18.860Z,268
2018-03-28T07:15:20.251Z,232
2018-03-28T07:16:21.650Z,196
2018-03-28T07:17:23.044Z,176
2018-03-28T07:18:24.428Z,188
2018-03-28T07:19:25.837Z,196
2018-03-28T07:20:27.226Z,216
2018-03-28T07:21:28.615Z,256
2018-03-28T07:22:30.002Z,264
2018-03-28T07:23:31.509Z,312
2018-03-28T07:24:32.912Z,308
2018-03-28T07:25:34.303Z,336
2018-03-28T07:26:35.709Z,400
2018-03-28T07:27:37.098Z,492
2018-03-28T07:28:38.488Z,484
2018-03-28T07:29:39.878Z,468
2018-03-28T07:30:41.270Z,480
2018-03-28T07:31:42.660Z,468
2018-03-28T07:32:44.054Z,476
2018-03-28T07:33:45.449Z,488
2018-03-28T07:34:46.834Z,552
2018-03-28T07:35:48.224Z,608
2018-03-28T07:36:49.615Z,708
2018-03-28T07:37:51.005Z,716
2018-03-28T07:38:52.398Z,752
2018-03-28T07:39:53.790Z,772
2018-03-28T07:40:55.190Z,964
2018-03-28T07:41:56.580Z,1096
2018-03-28T07:42:57.970Z,1192
2018-03-28T07:43:59.361Z,1348
2018-03-28T07:45:00.758Z,1384
2018-03-28T07:46:02.150Z,1388
2018-03-28T07:47:03.548Z,1480
2018-03-28T07:48:04.939Z,1260
2018-03-28T07:49:06.371Z,1272
2018-03-28T07:50:07.765Z,1436
2018-03-28T07:51:09.152Z,1324
2018-03-28T07:52:10.548Z,1120
2018-03-28T07:53:11.940Z,996
2018-03-28T07:54:13.327Z,816
2018-03-28T07:55:14.721Z,768
2018-03-28T07:56:16.113Z,636
2018-03-28T07:57:17.496Z,480
2018-03-28T07:58:18.884Z,484
2018-03-28T07:59:20.332Z,396
2018-03-28T08:00:21.721Z,352
2018-03-28T08:01:23.125Z,372
2018-03-28T08:02:24.519Z,408
2018-03-28T08:03:25.924Z,484
2018-03-28T08:04:27.313Z,480
2018-03-28T08:05:28.703Z,472
2018-03-28T08:06:30.100Z,464
2018-03-28T08:07:31.513Z,400
2018-03-28T08:08:32.900Z,416
2018-03-28T08:09:34.320Z,452
2018-03-28T08:10:35.695Z,564
2018-03-28T08:11:37.092Z,548
2018-03-28T08:12:38.666Z,772
2018-03-28T08:13:39.941Z,976
2018-03-28T08:14:41.333Z,1144
2018-03-28T08:15:42.725Z,1112
2018-03-28T08:16:44.115Z,896
2018-03-28T08:17:45.518Z,736
2018-03-28T08:18:46.908Z,812
2018-03-28T08:19:48.299Z,1064
2018-03-28T08:20:49.693Z,1148
2018-03-28T08:21:51.085Z,1196
2018-03-28T08:22:52.478Z,1392
2018-03-28T08:23:53.871Z,1252
2018-03-28T08:24:55.268Z,1436
2018-03-28T08:25:56.661Z,1788
2018-03-28T08:26:58.056Z,2164
2018-03-28T08:27:59.445Z,2084
2018-03-28T08:29:00.839Z,1716
2018-03-28T08:30:02.243Z,1680
2018-03-28T08:31:03.628Z,1320
2018-03-28T08:32:05.019Z,1184
2018-03-28T08:33:06.404Z,992
2018-03-28T08:34:07.798Z,1136
2018-03-28T08:35:09.189Z,936
2018-03-28T08:36:10.585Z,748
2018-03-28T08:37:11.977Z,840
2018-03-28T08:38:13.369Z,964
2018-03-28T08:39:14.822Z,912
2018-03-28T08:40:16.150Z,816
2018-03-28T08:41:17.543Z,860
2018-03-28T08:42:18.932Z,1016
2018-03-28T08:43:20.326Z,1048
2018-03-28T08:44:21.719Z,1016
2018-03-28T08:45:23.112Z,1084
2018-03-28T08:46:24.506Z,1188
2018-03-28T08:47:25.910Z,1420
2018-03-28T08:48:27.301Z,1312
2018-03-28T08:49:28.692Z,1072
2018-03-28T08:50:30.090Z,1048
2018-03-28T08:51:31.478Z,984
2018-03-28T08:52:32.872Z,1000
2018-03-28T08:53:34.262Z,1072
2018-03-28T08:54:35.656Z,1212
2018-03-28T08:55:37.043Z,1524
2018-03-28T08:56:38.438Z,1904
2018-03-28T08:57:39.825Z,2052
2018-03-28T08:58:41.250Z,2028
2018-03-28T08:59:42.719Z,2160
2018-03-28T09:00:44.106Z,2424
2018-03-28T09:01:45.538Z,2520
2018-03-28T09:02:47.095Z,2620
2018-03-28T09:03:48.498Z,2716
2018-03-28T09:04:49.899Z,2300
2018-03-28T09:05:51.285Z,2132
2018-03-28T09:06:52.677Z,2512
2018-03-28T09:07:54.064Z,3044
2018-03-28T09:08:55.478Z,3020
2018-03-28T09:09:56.872Z,3276
2018-03-28T09:10:58.263Z,2888
2018-03-28T09:11:59.657Z,3156
2018-03-28T09:13:01.056Z,3460
2018-03-28T09:14:02.445Z,3452
2018-03-28T09:15:03.834Z,3036
2018-03-28T09:16:05.313Z,2996
2018-03-28T09:17:06.708Z,2932
2018-03-28T09:18:08.097Z,3456
2018-03-28T09:19:09.531Z,3360
2018-03-28T09:20:10.894Z,2944
2018-03-28T09:21:12.286Z,2776
2018-03-28T09:22:13.683Z,3116
2018-03-28T09:23:15.081Z,3624
2018-03-28T09:24:16.473Z,4116
2018-03-28T09:25:17.868Z,4664
2018-03-28T09:26:19.267Z,4828
2018-03-28T09:27:20.652Z,4064
2018-03-28T09:28:22.047Z,3812
2018-03-28T09:29:23.441Z,3736
2018-03-28T09:30:24.837Z,3716
2018-03-28T09:31:26.229Z,3648
2018-03-28T09:32:27.623Z,3620
2018-03-28T09:33:29.019Z,3524
2018-03-28T09:34:30.421Z,3396
2018-03-28T09:35:31.813Z,3304
2018-03-28T09:36:33.206Z,3284
2018-03-28T09:37:34.597Z,3452
2018-03-28T09:38:35.996Z,4068
2018-03-28T09:39:37.390Z,4916
2018-03-28T09:40:38.784Z,4584
2018-03-28T09:41:40.185Z,4712
2018-03-28T09:42:41.584Z,4748
2018-03-28T09:43:42.979Z,4624
2018-03-28T09:44:44.377Z,4376
2018-03-28T09:45:45.780Z,4224
2018-03-28T09:46:47.169Z,4180
2018-03-28T09:47:48.563Z,3964
2018-03-28T09:48:49.959Z,3892
2018-03-28T09:49:51.349Z,3924
2018-03-28T09:50:52.741Z,3916
2018-03-28T09:51:54.158Z,3772
2018-03-28T09:52:55.570Z,3700
2018-03-28T09:53:56.961Z,3620
2018-03-28T09:54:58.359Z,3388
2018-03-28T09:55:59.781Z,3040
2018-03-28T09:57:01.150Z,2596
2018-03-28T09:58:02.543Z,2172
2018-03-28T09:59:03.937Z,1840
2018-03-28T10:00:05.337Z,1712
2018-03-28T10:01:06.734Z,1648
2018-03-28T10:02:08.131Z,1492
2018-03-28T10:03:09.523Z,1504
2018-03-28T10:04:10.937Z,1716
2018-03-28T10:05:12.322Z,1836
2018-03-28T10:06:13.714Z,1916
2018-03-28T10:07:15.121Z,2092
2018-03-28T10:08:16.514Z,2000
2018-03-28T10:09:17.911Z,1896
2018-03-28T10:10:19.305Z,1792
2018-03-28T10:11:20.696Z,1664
2018-03-28T10:12:22.088Z,1656
2018-03-28T10:13:23.481Z,1804
2018-03-28T10:14:24.873Z,2140
2018-03-28T10:15:26.266Z,2420
2018-03-28T10:16:27.666Z,2316
2018-03-28T10:17:29.064Z,1980
2018-03-28T10:18:30.461Z,1844
2018-03-28T10:19:31.853Z,1812
2018-03-28T10:20:33.246Z,1904
2018-03-28T10:21:34.639Z,1956
2018-03-28T10:22:36.034Z,1800
2018-03-28T10:23:37.434Z,1720
2018-03-28T10:24:38.827Z,1956
2018-03-28T10:25:40.224Z,2024
2018-03-28T10:26:41.615Z,2088
2018-03-28T10:27:43.009Z,2144
2018-03-28T10:28:44.398Z,2204
2018-03-28T10:29:45.787Z,2148
2018-03-28T10:30:47.185Z,2276
2018-03-28T10:31:48.576Z,2436
2018-03-28T10:32:49.975Z,2564
2018-03-28T10:33:51.364Z,2456
2018-03-28T10:34:52.752Z,2344
2018-03-28T10:35:54.150Z,2120
2018-03-28T10:36:55.539Z,2032
2018-03-28T10:37:56.929Z,2072
2018-03-28T10:38:58.320Z,1948
2018-03-28T10:39:59.711Z,1912
2018-03-28T10:41:01.178Z,1812
2018-03-28T10:42:02.703Z,1788
2018-03-28T10:43:04.091Z,1704
2018-03-28T10:44:05.490Z,1748
2018-03-28T10:45:06.877Z,1968
2018-03-28T10:46:08.273Z,1828
2018-03-28T10:47:09.670Z,1728
2018-03-28T10:48:11.075Z,1540
2018-03-28T10:49:12.478Z,1268
2018-03-28T10:50:13.872Z,1256
2018-03-28T10:51:15.270Z,1804
2018-03-28T10:52:16.667Z,2112
2018-03-28T10:53:18.059Z,1784
2018-03-28T10:54:19.452Z,1444
2018-03-28T10:55:20.843Z,1168
2018-03-28T10:56:22.239Z,1028
2018-03-28T10:57:23.625Z,996
2018-03-28T10:58:25.015Z,980
2018-03-28T10:59:26.408Z,924
2018-03-28T11:00:27.802Z,808
2018-03-28T11:01:29.187Z,736
2018-03-28T11:02:30.580Z,852
2018-03-28T11:03:31.982Z,1108
2018-03-28T11:04:33.446Z,1160
2018-03-28T11:05:34.816Z,1248
2018-03-28T11:06:36.209Z,1336
2018-03-28T11:07:37.602Z,1484
2018-03-28T11:08:38.991Z,1460
2018-03-28T11:09:40.406Z,1420
2018-03-28T11:10:41.798Z,1296
2018-03-28T11:11:43.189Z,1088
2018-03-28T11:12:44.582Z,1020
2018-03-28T11:13:45.976Z,1188
2018-03-28T11:14:47.369Z,1168
2018-03-28T11:15:48.765Z,1276
2018-03-28T11:16:50.160Z,1332
2018-03-28T11:17:51.548Z,1440
2018-03-28T11:18:52.943Z,1440
2018-03-28T11:19:54.348Z,1480
2018-03-28T11:20:55.746Z,1432
2018-03-28T11:21:57.137Z,1420
2018-03-28T11:22:58.530Z,1588
2018-03-28T11:23:59.932Z,1648
2018-03-28T11:25:01.316Z,1700
2018-03-28T11:26:02.713Z,1808
2018-03-28T11:27:04.101Z,1936
2018-03-28T11:28:05.491Z,2044
2018-03-28T11:29:06.887Z,2260
2018-03-28T11:30:08.305Z,2364
2018-03-28T11:31:09.780Z,2456
2018-03-28T11:32:11.172Z,2672
2018-03-28T11:33:12.568Z,2764
2018-03-28T11:34:13.963Z,2756
2018-03-28T11:35:15.358Z,2616
2018-03-28T11:36:16.751Z,2548
2018-03-28T11:37:18.147Z,2460
2018-03-28T11:38:19.542Z,2472
2018-03-28T11:39:20.932Z,2568
2018-03-28T11:40:22.323Z,2616
2018-03-28T11:41:23.718Z,2536
2018-03-28T11:42:25.116Z,2392
2018-03-28T11:43:26.508Z,2180
2018-03-28T11:44:27.904Z,1972
2018-03-28T11:45:29.294Z,1828
2018-03-28T11:46:30.687Z,1744
2018-03-28T11:47:32.079Z,1684
2018-03-28T11:48:33.471Z,1648
2018-03-28T11:49:34.865Z,1640
2018-03-28T11:50:36.258Z,1640
2018-03-28T11:51:37.654Z,1648
2018-03-28T11:52:39.050Z,1720
2018-03-28T11:53:40.433Z,1820
2018-03-28T11:54:41.824Z,1836
2018-03-28T11:55:43.220Z,1772
2018-03-28T11:56:44.611Z,1672
2018-03-28T11:57:46.021Z,1564
2018-03-28T11:58:47.435Z,1580
2018-03-28T11:59:48.826Z,1592
2018-03-28T12:00:50.224Z,1640
2018-03-28T12:01:51.618Z,1656
2018-03-28T12:02:53.007Z,1628
2018-03-28T12:03:54.400Z,1604
2018-03-28T12:04:55.794Z,1632
2018-03-28T12:05:57.188Z,1680
2018-03-28T12:06:58.581Z,1572
2018-03-28T12:07:59.978Z,1508
2018-03-28T12:09:01.410Z,1584
2018-03-28T12:10:02.764Z,1572
2018-03-28T12:11:04.153Z,1612
2018-03-28T12:12:05.545Z,1612
2018-03-28T12:13:06.938Z,1588
2018-03-28T12:14:08.328Z,1560
2018-03-28T12:15:09.718Z,1660
2018-03-28T12:16:11.109Z,1736
2018-03-28T12:17:12.503Z,1788
2018-03-28T12:18:13.895Z,1848
2018-03-28T12:19:15.399Z,1840
2018-03-28T12:20:16.848Z,1872
2018-03-28T12:21:18.234Z,1892
2018-03-28T12:22:19.626Z,2008
2018-03-28T12:23:21.018Z,2104
2018-03-28T12:24:22.408Z,2152
2018-03-28T12:25:23.800Z,2168
2018-03-28T12:26:25.240Z,2136
2018-03-28T12:27:26.612Z,2100
2018-03-28T12:28:28.002Z,2080
2018-03-28T12:29:29.395Z,2056
2018-03-28T12:30:30.857Z,2100
2018-03-28T12:31:32.181Z,2216
2018-03-28T12:32:33.577Z,2208
2018-03-28T12:33:34.971Z,2088
2018-03-28T12:34:36.366Z,2056
2018-03-28T12:35:37.756Z,2016
2018-03-28T12:36:39.149Z,1908
2018-03-28T12:37:40.540Z,1808
2018-03-28T12:38:41.936Z,1896
2018-03-28T12:39:43.323Z,2072
2018-03-28T12:40:44.722Z,2156
2018-03-28T12:41:46.115Z,2196
2018-03-28T12:42:47.517Z,2176
2018-03-28T12:43:48.900Z,2096
2018-03-28T12:44:50.292Z,2012
2018-03-28T12:45:51.683Z,2000
2018-03-28T12:46:53.077Z,2004
2018-03-28T12:47:54.472Z,1960
2018-03-28T12:48:55.869Z,1952
2018-03-28T12:49:57.333Z,1964
2018-03-28T12:50:58.647Z,1932
2018-03-28T12:52:00.046Z,1840
2018-03-28T12:53:01.434Z,1748
2018-03-28T12:54:02.828Z,1680
2018-03-28T12:55:04.218Z,1664
2018-03-28T12:56:05.612Z,1640
2018-03-28T12:57:07.001Z,1584
2018-03-28T12:58:08.392Z,1552
2018-03-28T12:59:09.783Z,1564
2018-03-28T13:00:11.180Z,1632
2018-03-28T13:01:12.571Z,1724
2018-03-28T13:02:14.023Z,1820
2018-03-28T13:03:15.364Z,1956
2018-03-28T13:04:16.761Z,1984
2018-03-28T13:05:18.191Z,2016
2018-03-28T13:06:19.543Z,2124
2018-03-28T13:07:20.946Z,2284
2018-03-28T13:08:22.368Z,2376
2018-03-28T13:09:23.753Z,2388
2018-03-28T13:10:25.148Z,2316
2018-03-28T13:11:26.542Z,2292
2018-03-28T13:12:27.936Z,2232
2018-03-28T13:13:29.326Z,2124
2018-03-28T13:14:30.718Z,2020
2018-03-28T13:15:32.111Z,1944
2018-03-28T13:16:33.511Z,1844
2018-03-28T13:17:34.958Z,1780
2018-03-28T13:18:36.292Z,1680
2018-03-28T13:19:37.687Z,1672
2018-03-28T13:20:39.077Z,1784
2018-03-28T13:21:40.494Z,1760
2018-03-28T13:22:41.892Z,1660
2018-03-28T13:23:43.286Z,1596
2018-03-28T13:24:44.731Z,1540
2018-03-28T13:25:46.177Z,1480
2018-03-28T13:26:47.708Z,1452
2018-03-28T13:27:49.105Z,1372
2018-03-28T13:28:50.572Z,1292
2018-03-28T13:29:52.052Z,1300
2018-03-28T13:30:53.466Z,1324
2018-03-28T13:31:54.880Z,1256
2018-03-28T13:32:56.280Z,1204
2018-03-28T13:33:57.761Z,1288
2018-03-28T13:34:59.179Z,1360
2018-03-28T13:36:00.645Z,1496
2018-03-28T13:37:02.042Z,1360
2018-03-28T13:38:03.440Z,1452
2018-03-28T13:39:04.839Z,1404
2018-03-28T13:40:06.230Z,1404
2018-03-28T13:41:07.630Z,1296
2018-03-28T13:42:09.020Z,1144
2018-03-28T13:43:10.415Z,1296
2018-03-28T13:44:11.809Z,1336
2018-03-28T13:45:13.205Z,1328
2018-03-28T13:46:14.598Z,1564
2018-03-28T13:47:15.993Z,1640
2018-03-28T13:48:17.398Z,1592
2018-03-28T13:49:18.786Z,1496
2018-03-28T13:50:20.199Z,1488
2018-03-28T13:51:21.811Z,1484
2018-03-28T13:52:23.201Z,1488
2018-03-28T13:53:24.595Z,1540
2018-03-28T13:54:26.229Z,1460
2018-03-28T13:55:27.708Z,1400
2018-03-28T13:56:29.162Z,1436
2018-03-28T13:57:30.584Z,1468
2018-03-28T13:58:31.970Z,1472
2018-03-28T13:59:33.369Z,1380
2018-03-28T14:00:34.776Z,1272
2018-03-28T14:01:36.174Z,1192
2018-03-28T14:02:37.561Z,1256
2018-03-28T14:03:38.960Z,1244
2018-03-28T14:04:40.365Z,1352
2018-03-28T14:05:41.799Z,1384
2018-03-28T14:06:43.149Z,1376
2018-03-28T14:07:44.546Z,1532
2018-03-28T14:08:45.947Z,1540
2018-03-28T14:09:47.339Z,1720
2018-03-28T14:10:48.734Z,2076
2018-03-28T14:11:50.133Z,1952
2018-03-28T14:12:51.538Z,1940
2018-03-28T14:13:52.931Z,1868
2018-03-28T14:14:54.325Z,1876
2018-03-28T14:15:55.719Z,1592